CheckWX is a tool to help pilots better visualize weather data.  It is not intended as a substitute for an official pre-flight weather briefing.

02:27:05 UTC

KNGP METAR
Airport
Corpus Christi, Texas, USA
Current

31 mins ago

KNGP 190156Z 17015G20KT 10SM FEW180 BKN250 29/27 A2984 RMK AO2 SLP102 T02940267
Observed
Sep-19 @ 01:56 UTC
Wind
  • 170° at 15 KTS
  • Gusting to 20 KTS
Visibility
10 SM
Flight Rules
VFR
Cloud Levels
  • Few at 18,000' AGL
  • Broken at 25,000' AGL
Temperature
29°C / 84°F
Dewpoint
27°C / 81°F
Heat Index
37°C / 98°F
Humidity
89%
Altimeter
29.84" Hg
Pressure
1010.52 hPa
Previous

2 hours ago

KNGP 190056Z 17015KT 10SM FEW024 SCT180 BKN250 29/27 A2982 RMK AO2 SLP099 T02940272
Observed
Sep-19 @ 00:56 UTC
Wind
  • 170° at 15 KTS
Visibility
10 SM
Flight Rules
VFR
Cloud Levels
  • Few at 2,400' AGL
  • Scattered at 18,000' AGL
  • Broken at 25,000' AGL
Temperature
29°C / 84°F
Dewpoint
27°C / 81°F
Heat Index
37°C / 98°F
Humidity
89%
Altimeter
29.82" Hg
Pressure
1009.82 hPa
Previous

3 hours ago

KNGP 182356Z 16015G19KT 10SM FEW024 FEW180 BKN250 31/27 A2982 RMK AO2 SLP096 TCU DSNT NW T03060267 10333 20306 55009
Observed
Sep-18 @ 23:56 UTC
Wind
  • 160° at 15 KTS
  • Gusting to 19 KTS
Visibility
10 SM
Flight Rules
VFR
Cloud Levels
  • Few at 2,400' AGL
  • Few at 18,000' AGL
  • Broken at 25,000' AGL
Temperature
31°C / 88°F
Dewpoint
27°C / 81°F
Heat Index
41°C / 106°F
Humidity
79%
Altimeter
29.82" Hg
Pressure
1009.82 hPa